Time;durP1;ratioP1;P1;durP2;ratioP2;P2;SDS_P1;SDS_P2;PMS_P1;PMS_P2;Temp;Humidity;BMP_temperature;BMP_pressure;BME280_temperature;BME280_humidity;BME280_pressure;Samples;Min_cycle;Max_cycle;Signal;HPM_P1;HPM_P2
2022/01/05 00:00:39;;;;;;;2.83;1.60;;;;;;;22.99;29.06;96270.28;5070965;28;20056;-78
2022/01/05 00:03:05;;;;;;;1.25;0.93;;;;;;;23.54;28.03;96279.31;5060114;28;20090;-78
2022/01/05 00:05:32;;;;;;;1.75;1.30;;;;;;;23.00;28.81;96265.47;5072573;28;20038;-78
2022/01/05 00:07:58;;;;;;;2.30;1.00;;;;;;;23.04;28.41;96280.06;5063587;28;20036;-78
2022/01/05 00:10:24;;;;;;;2.90;1.60;;;;;;;21.84;30.34;96282.56;5062922;28;20029;-78
2022/01/05 00:12:50;;;;;;;2.42;1.20;;;;;;;22.65;29.23;96295.84;5062929;28;20400;-78
2022/01/05 00:15:16;;;;;;;1.70;1.05;;;;;;;23.19;28.12;96304.16;5057718;28;20067;-78
2022/01/05 00:17:43;;;;;;;2.03;1.73;;;;;;;23.00;28.29;96301.84;5068610;28;20043;-78
2022/01/05 00:20:10;;;;;;;1.65;1.20;;;;;;;22.00;29.83;96310.22;5071244;28;20043;-79
2022/01/05 00:22:36;;;;;;;3.00;1.63;;;;;;;22.89;28.36;96295.97;5059795;28;20037;-79
2022/01/05 00:25:02;;;;;;;2.47;1.52;;;;;;;21.49;30.52;96304.28;5070426;28;20032;-79
2022/01/05 00:27:28;;;;;;;3.03;1.67;;;;;;;22.20;29.68;96310.56;5071627;28;20510;-79
2022/01/05 00:29:54;;;;;;;2.00;1.60;;;;;;;23.13;28.03;96311.63;5071801;28;20030;-79
2022/01/05 00:32:21;;;;;;;1.83;1.20;;;;;;;23.76;27.00;96313.44;5059388;28;20121;-79
2022/01/05 00:34:48;;;;;;;2.03;1.55;;;;;;;23.52;27.20;96309.06;5071941;28;20029;-78
2022/01/05 00:37:14;;;;;;;1.70;1.40;;;;;;;23.70;26.92;96306.94;5054069;28;20044;-78
2022/01/05 00:39:40;;;;;;;4.00;2.60;;;;;;;24.84;25.56;96310.44;5064607;28;20032;-78
2022/01/05 00:42:07;;;;;;;1.52;0.90;;;;;;;25.29;24.87;96324.81;5070127;28;20048;-78
2022/01/05 00:44:33;;;;;;;1.52;1.27;;;;;;;24.62;25.32;96330.41;5066954;28;20045;-78
2022/01/05 00:46:59;;;;;;;2.17;1.23;;;;;;;24.40;25.74;96339.13;5074584;28;20044;-78
2022/01/05 00:49:25;;;;;;;1.05;0.80;;;;;;;24.90;25.48;96350.63;5071824;28;20032;-78
2022/01/05 00:51:51;;;;;;;2.00;1.20;;;;;;;25.78;24.04;96328.97;5065437;28;20067;-78
2022/01/05 00:54:17;;;;;;;1.25;0.93;;;;;;;26.00;23.52;96318.03;5069205;28;20029;-78
2022/01/05 00:56:43;;;;;;;1.45;1.08;;;;;;;26.21;23.55;96327.34;5061376;28;20024;-78
2022/01/05 00:59:09;;;;;;;0.93;0.90;;;;;;;26.42;23.07;96331.72;5069671;28;20020;-78
2022/01/05 01:01:36;;;;;;;1.50;0.80;;;;;;;26.61;22.78;96328.09;5065831;28;20041;-78
2022/01/05 01:04:03;;;;;;;1.90;0.70;;;;;;;26.80;22.48;96328.63;5068708;28;20039;-78
2022/01/05 01:06:29;;;;;;;0.60;0.57;;;;;;;26.76;22.60;96332.91;5067430;28;20032;-78
2022/01/05 01:08:55;;;;;;;0.90;0.90;;;;;;;26.73;22.64;96332.63;5072185;28;20040;-77
2022/01/05 01:11:21;;;;;;;1.35;0.98;;;;;;;27.02;22.16;96345.78;5068464;28;20036;-78
2022/01/05 01:13:47;;;;;;;0.80;0.70;;;;;;;27.00;22.09;96341.91;5067162;28;20373;-78
2022/01/05 01:16:13;;;;;;;0.95;0.80;;;;;;;26.80;22.54;96351.16;5061143;28;20742;-78
2022/01/05 01:18:39;;;;;;;1.55;1.30;;;;;;;26.72;22.26;96347.19;5067945;28;20552;-78
2022/01/05 01:21:05;;;;;;;1.15;0.95;;;;;;;26.96;22.15;96350.56;5074408;28;20499;-78
2022/01/05 01:23:31;;;;;;;1.77;1.17;;;;;;;27.31;21.67;96345.56;5062974;28;20108;-78
2022/01/05 01:25:58;;;;;;;1.85;1.00;;;;;;;26.92;22.19;96349.22;5069550;28;20571;-77
2022/01/05 01:28:24;;;;;;;1.30;1.20;;;;;;;27.15;22.12;96356.66;5060958;28;20033;-78
2022/01/05 01:30:51;;;;;;;1.95;1.50;;;;;;;26.23;22.84;96364.97;5068084;28;20040;-77
2022/01/05 01:33:18;;;;;;;5.78;1.33;;;;;;;26.14;23.37;96364.31;5073555;28;20364;-78
2022/01/05 01:35:44;;;;;;;3.75;1.27;;;;;;;26.72;22.54;96350.00;5069651;28;20029;-78
2022/01/05 01:38:10;;;;;;;1.52;1.30;;;;;;;26.85;22.14;96341.22;5066418;28;20553;-78
2022/01/05 01:40:36;;;;;;;1.08;0.88;;;;;;;27.24;22.09;96348.03;5071136;28;20036;-78
2022/01/05 01:43:02;;;;;;;1.70;1.13;;;;;;;27.34;21.84;96352.25;5073602;28;20054;-78
2022/01/05 01:45:29;;;;;;;1.65;1.10;;;;;;;26.82;22.14;96350.63;5066147;28;20042;-78
2022/01/05 01:47:55;;;;;;;1.52;1.08;;;;;;;26.79;22.59;96351.66;5054866;28;20029;-78
2022/01/05 01:50:21;;;;;;;1.63;1.33;;;;;;;26.07;23.01;96357.78;5075027;28;20411;-78
2022/01/05 01:52:47;;;;;;;1.73;1.33;;;;;;;26.32;22.89;96353.59;5064835;28;20074;-77
2022/01/05 01:55:13;;;;;;;1.42;1.10;;;;;;;26.16;23.04;96354.13;5069546;28;20051;-78
2022/01/05 01:57:43;;;;;;;1.83;1.10;;;;;;;26.05;23.33;96356.72;5062229;28;20071;-78
2022/01/05 02:00:10;;;;;;;2.28;1.70;;;;;;;26.27;22.80;96365.53;5071938;28;20032;-78
2022/01/05 02:02:37;;;;;;;2.38;1.80;;;;;;;25.72;23.28;96361.84;5066735;28;20024;-78
2022/01/05 02:05:05;;;;;;;2.60;1.85;;;;;;;25.96;23.15;96363.25;5069560;28;20036;-78
2022/01/05 02:07:31;;;;;;;3.35;2.47;;;;;;;26.16;23.06;96359.75;5066664;28;20024;-77
2022/01/05 02:09:57;;;;;;;2.35;1.50;;;;;;;26.55;22.41;96363.88;5068108;28;20029;-77
2022/01/05 02:12:26;;;;;;;3.92;2.17;;;;;;;26.60;22.15;96365.22;5067168;28;20395;-77
2022/01/05 02:14:53;;;;;;;2.22;1.40;;;;;;;26.48;22.30;96360.69;5068345;28;20036;-78
2022/01/05 02:17:23;;;;;;;2.00;1.67;;;;;;;25.95;23.08;96372.94;5050231;28;20036;-77
2022/01/05 02:19:49;;;;;;;2.30;1.67;;;;;;;25.70;23.15;96382.00;5070704;28;20040;-78
2022/01/05 02:22:16;;;;;;;3.05;1.60;;;;;;;24.97;24.26;96390.31;5064742;28;20517;-77
2022/01/05 02:24:47;;;;;;;1.63;1.40;;;;;;;25.41;23.80;96393.22;5067187;28;20061;-78
2022/01/05 02:27:13;;;;;;;;;;;;;;;25.31;23.50;96402.97;5067935;28;20039;-78
2022/01/05 02:29:39;;;;;;;1.98;1.60;;;;;;;24.62;24.75;96414.59;5067009;28;20419;-77
2022/01/05 02:32:06;;;;;;;3.72;1.75;;;;;;;24.79;24.43;96398.09;5069151;28;20480;-78
2022/01/05 02:34:32;;;;;;;3.85;1.77;;;;;;;25.03;24.33;96394.03;5059684;28;20445;-77
2022/01/05 02:36:59;;;;;;;2.35;1.58;;;;;;;25.26;23.82;96395.22;5066196;28;20032;-77
2022/01/05 02:39:25;;;;;;;2.00;1.25;;;;;;;26.01;23.10;96401.94;5068174;28;20636;-77
2022/01/05 02:41:52;;;;;;;3.13;1.50;;;;;;;26.58;22.36;96396.66;5062409;28;20094;-78
2022/01/05 02:44:18;;;;;;;2.05;1.20;;;;;;;26.95;21.63;96388.47;5068011;28;20029;-78
2022/01/05 02:46:45;;;;;;;1.73;1.58;;;;;;;27.03;21.56;96397.25;5068130;28;20021;-77
2022/01/05 02:49:11;;;;;;;2.58;1.42;;;;;;;26.84;21.75;96398.81;5061144;28;20040;-78
2022/01/05 02:51:37;;;;;;;2.15;1.65;;;;;;;26.65;21.84;96396.22;5068591;28;20043;-77
2022/01/05 02:54:04;;;;;;;2.05;1.48;;;;;;;27.04;21.38;96387.53;5070779;28;20408;-78
2022/01/05 02:56:30;;;;;;;1.92;1.33;;;;;;;27.16;21.08;96378.72;5063291;28;20020;-77
2022/01/05 02:58:56;;;;;;;1.48;1.20;;;;;;;27.14;21.10;96384.06;5066147;28;20039;-77
2022/01/05 03:01:22;;;;;;;1.02;0.93;;;;;;;27.15;21.51;96388.44;5064265;28;20115;-77
2022/01/05 03:03:48;;;;;;;1.58;1.23;;;;;;;27.13;21.25;96385.34;5071168;28;20033;-77
2022/01/05 03:06:14;;;;;;;1.17;1.08;;;;;;;27.18;21.29;96383.84;5053514;28;20033;-77
2022/01/05 03:08:40;;;;;;;1.48;1.05;;;;;;;26.89;21.32;96384.78;5070583;28;20089;-77
2022/01/05 03:11:06;;;;;;;1.35;0.98;;;;;;;27.18;21.28;96381.81;5058392;28;20051;-77
2022/01/05 03:13:32;;;;;;;1.90;1.17;;;;;;;27.55;20.53;96387.59;5071825;28;20056;-77
2022/01/05 03:15:59;;;;;;;1.40;1.20;;;;;;;27.38;20.81;96376.16;5069123;28;20032;-77
2022/01/05 03:18:25;;;;;;;1.60;0.90;;;;;;;27.52;20.71;96371.66;5068220;28;20480;-77
2022/01/05 03:20:51;;;;;;;1.17;1.08;;;;;;;27.52;20.78;96368.84;5066826;28;20029;-77
2022/01/05 03:23:17;;;;;;;1.17;1.02;;;;;;;27.58;20.76;96383.78;5071230;28;20044;-77
2022/01/05 03:25:43;;;;;;;0.85;0.80;;;;;;;27.80;20.28;96363.44;5063815;28;20096;-77
2022/01/05 03:28:10;;;;;;;1.60;0.90;;;;;;;27.59;20.45;96350.69;5069288;28;20043;-77
2022/01/05 03:30:36;;;;;;;2.42;0.80;;;;;;;27.73;20.53;96333.66;5071860;28;20032;-77
2022/01/05 03:33:11;;;;;;;0.90;0.80;;;;;;;28.00;20.10;96315.44;5069713;28;20037;-78
2022/01/05 03:35:43;;;;;;;1.85;0.98;;;;;;;28.14;19.79;96319.38;5065613;28;20086;-78
2022/01/05 03:38:10;;;;;;;1.23;0.80;;;;;;;28.36;19.87;96333.59;5073908;28;20467;-78
2022/01/05 03:40:37;;;;;;;1.40;0.93;;;;;;;28.18;19.66;96326.31;5070438;28;20024;-78
2022/01/05 03:43:06;;;;;;;1.05;0.80;;;;;;;27.79;20.15;96323.22;5067067;28;20040;-78
2022/01/05 03:45:32;;;;;;;1.55;0.80;;;;;;;27.70;20.37;96340.28;5068347;28;20624;-77
2022/01/05 03:47:59;;;;;;;1.77;0.85;;;;;;;27.78;20.47;96332.94;5068399;28;20464;-77
2022/01/05 03:50:25;;;;;;;1.15;0.90;;;;;;;28.05;20.17;96328.81;5067076;28;20105;-78
2022/01/05 03:52:51;;;;;;;1.35;0.90;;;;;;;28.25;19.68;96316.59;5048883;28;20115;-77
2022/01/05 03:55:17;;;;;;;1.58;0.82;;;;;;;28.16;19.87;96309.13;5069703;28;20032;-77
2022/01/05 03:57:43;;;;;;;1.02;0.93;;;;;;;27.58;20.39;96304.06;5067934;28;20072;-77
2022/01/05 04:00:10;;;;;;;0.88;0.70;;;;;;;26.80;21.22;96311.72;5070658;28;20028;-77
2022/01/05 04:02:36;;;;;;;0.85;0.70;;;;;;;26.80;21.82;96323.00;5071986;28;20082;-77
2022/01/05 04:05:03;;;;;;;1.25;0.82;;;;;;;27.26;21.01;96331.41;5072983;28;20025;-77
2022/01/05 04:07:29;;;;;;;1.88;0.80;;;;;;;27.66;20.69;96317.19;5072511;28;20036;-77
2022/01/05 04:09:55;;;;;;;1.08;0.88;;;;;;;28.10;20.05;96313.19;5056272;28;20024;-77
2022/01/05 04:12:21;;;;;;;0.80;0.80;;;;;;;28.47;19.79;96336.50;5073848;28;20029;-77
2022/01/05 04:14:47;;;;;;;1.20;0.77;;;;;;;28.69;19.54;96348.69;5073840;28;20480;-77
2022/01/05 04:17:13;;;;;;;0.85;0.80;;;;;;;28.79;19.32;96352.06;5061083;28;20029;-78
2022/01/05 04:19:39;;;;;;;0.90;0.60;;;;;;;28.83;19.24;96349.78;5068534;28;20039;-78
2022/01/05 04:22:05;;;;;;;5.43;1.27;;;;;;;26.22;22.02;96311.97;5073595;28;20408;-78
2022/01/05 04:24:31;;;;;;;1.60;0.80;;;;;;;26.53;21.66;96320.59;5069096;28;20037;-78
2022/01/05 04:26:58;;;;;;;0.75;0.65;;;;;;;27.08;21.38;96332.53;5073977;28;20121;-78
2022/01/05 04:29:24;;;;;;;1.75;0.95;;;;;;;27.64;20.39;96345.13;5064209;28;20029;-77
2022/01/05 04:31:50;;;;;;;0.70;0.70;;;;;;;27.66;20.44;96355.91;5073642;28;20037;-77
2022/01/05 04:34:16;;;;;;;0.77;0.68;;;;;;;27.65;20.21;96368.47;5069903;28;20499;-78
2022/01/05 04:36:42;;;;;;;1.17;0.70;;;;;;;27.63;20.33;96360.50;5074291;28;20028;-77
2022/01/05 04:39:08;;;;;;;0.70;0.70;;;;;;;27.89;19.93;96377.41;5069716;28;20021;-77
2022/01/05 04:41:34;;;;;;;0.90;0.70;;;;;;;27.96;20.01;96383.34;5070809;28;20120;-78
2022/01/05 04:44:00;;;;;;;0.80;0.75;;;;;;;28.22;19.74;96390.97;5074086;28;20068;-77
2022/01/05 04:46:26;;;;;;;0.77;0.77;;;;;;;28.45;19.33;96378.59;5067722;28;20106;-78
2022/01/05 04:48:52;;;;;;;0.70;0.60;;;;;;;28.64;19.30;96374.06;5074034;28;20063;-78
2022/01/05 04:51:18;;;;;;;1.15;0.90;;;;;;;28.23;19.76;96367.91;5068945;28;20032;-78
2022/01/05 04:53:44;;;;;;;0.70;0.70;;;;;;;27.71;20.13;96384.16;5073065;28;20027;-78
2022/01/05 04:56:10;;;;;;;0.75;0.63;;;;;;;28.00;19.82;96388.78;5073210;28;20119;-78
2022/01/05 04:58:36;;;;;;;2.47;0.80;;;;;;;28.28;19.63;96392.59;5052339;28;20476;-78
2022/01/05 05:01:02;;;;;;;1.33;0.95;;;;;;;28.38;19.30;96384.69;5068232;28;20383;-77
2022/01/05 05:03:28;;;;;;;2.25;0.90;;;;;;;27.80;20.08;96383.97;5073198;28;20025;-77
2022/01/05 05:05:54;;;;;;;1.23;1.00;;;;;;;27.35;20.37;96379.94;5072704;28;20029;-78
2022/01/05 05:08:20;;;;;;;0.95;0.88;;;;;;;27.33;20.67;96388.09;5070556;28;20048;-78
2022/01/05 05:10:46;;;;;;;0.93;0.93;;;;;;;27.71;20.13;96394.66;5053600;28;20035;-78
2022/01/05 05:13:13;;;;;;;0.90;0.80;;;;;;;28.12;19.92;96398.13;5073736;28;20048;-78
2022/01/05 05:15:40;;;;;;;0.60;0.60;;;;;;;28.37;19.52;96397.25;5071988;28;20419;-77
2022/01/05 05:18:07;;;;;;;1.38;0.82;;;;;;;28.30;19.85;96386.44;5072775;28;20029;-77
2022/01/05 05:20:33;;;;;;;1.60;0.90;;;;;;;28.34;19.48;96395.44;5071343;28;20040;-77
2022/01/05 05:23:03;;;;;;;1.13;0.88;;;;;;;28.53;19.44;96390.94;5072624;28;20032;-78
2022/01/05 05:25:29;;;;;;;0.82;0.70;;;;;;;28.71;19.26;96399.00;5069549;28;20115;-77
2022/01/05 05:27:56;;;;;;;1.10;0.93;;;;;;;28.81;19.05;96402.41;5060798;28;20032;-78
2022/01/05 05:30:22;;;;;;;0.80;0.80;;;;;;;28.64;19.02;96411.56;5061730;28;20075;-78
2022/01/05 05:32:48;;;;;;;1.60;1.00;;;;;;;27.78;19.83;96411.13;5060360;28;20033;-77
2022/01/05 05:35:14;;;;;;;1.48;0.82;;;;;;;27.36;20.37;96406.06;5064867;28;20036;-78
2022/01/05 05:37:41;;;;;;;1.10;0.90;;;;;;;27.06;20.97;96401.91;5054896;28;20580;-77
2022/01/05 05:40:08;;;;;;;1.48;1.23;;;;;;;26.59;21.32;96403.84;5058135;28;20029;-77
2022/01/05 05:42:34;;;;;;;1.10;1.00;;;;;;;26.30;21.98;96409.56;5073252;28;20041;-78
2022/01/05 05:45:00;;;;;;;1.73;1.30;;;;;;;26.27;22.03;96402.09;5067405;28;20041;-77
2022/01/05 05:47:26;;;;;;;1.70;0.80;;;;;;;26.66;21.48;96403.44;5067047;28;20033;-77
2022/01/05 05:49:52;;;;;;;1.15;0.70;;;;;;;26.99;21.10;96397.47;5072861;28;20040;-77
2022/01/05 05:52:18;;;;;;;1.45;0.75;;;;;;;27.07;21.10;96392.94;5065223;28;20043;-77
2022/01/05 05:54:44;;;;;;;1.55;1.35;;;;;;;27.55;20.56;96393.22;5069843;28;20029;-77
2022/01/05 05:57:10;;;;;;;0.88;0.85;;;;;;;27.82;19.83;96398.34;5068802;28;20083;-77
2022/01/05 05:59:36;;;;;;;0.80;0.80;;;;;;;27.98;19.80;96402.59;5071601;28;20035;-76
2022/01/05 06:02:02;;;;;;;2.90;0.82;;;;;;;28.11;19.89;96405.03;5071028;28;20410;-77
2022/01/05 06:04:29;;;;;;;0.65;0.65;;;;;;;28.34;19.45;96398.25;5070303;28;20024;-77
2022/01/05 06:06:55;;;;;;;0.98;0.80;;;;;;;28.54;19.29;96400.97;5071708;28;20044;-77
2022/01/05 06:09:21;;;;;;;1.02;0.93;;;;;;;28.67;19.28;96406.97;5072452;28;20052;-77
2022/01/05 06:11:49;;;;;;;1.75;1.40;;;;;;;28.62;19.09;96399.22;5069119;28;20407;-78
2022/01/05 06:14:15;;;;;;;1.48;1.35;;;;;;;28.21;19.41;96410.00;5069448;28;20027;-78
2022/01/05 06:16:43;;;;;;;1.17;1.08;;;;;;;27.61;20.11;96408.16;5068908;28;20024;-77
2022/01/05 06:19:09;;;;;;;1.38;0.70;;;;;;;27.82;20.17;96423.72;5063189;28;20020;-78
2022/01/05 06:21:36;;;;;;;1.45;0.80;;;;;;;28.00;19.72;96425.47;5062002;28;20055;-77
2022/01/05 06:24:02;;;;;;;1.67;1.50;;;;;;;27.56;20.12;96420.16;5056363;28;20036;-76
2022/01/05 06:26:28;;;;;;;2.88;2.15;;;;;;;26.98;20.70;96409.25;5059697;28;20472;-77
2022/01/05 06:28:55;;;;;;;3.03;2.25;;;;;;;26.61;20.94;96403.34;5061542;28;20028;-77
2022/01/05 06:31:21;;;;;;;2.08;1.35;;;;;;;26.46;21.49;96400.59;5061345;28;20625;-77
2022/01/05 06:33:47;;;;;;;2.35;1.33;;;;;;;26.55;21.39;96403.28;5061059;28;20107;-77
2022/01/05 06:36:13;;;;;;;2.05;1.05;;;;;;;27.14;20.90;96397.41;5057619;28;20064;-76
2022/01/05 06:38:39;;;;;;;2.50;1.58;;;;;;;27.60;20.29;96398.16;5069075;28;20029;-77
2022/01/05 06:41:05;;;;;;;2.75;1.90;;;;;;;27.77;19.96;96406.78;5062926;28;20523;-77
2022/01/05 06:43:31;;;;;;;2.63;1.85;;;;;;;27.84;19.58;96409.91;5067456;28;20052;-79
2022/01/05 06:45:58;;;;;;;2.42;1.83;;;;;;;27.07;20.81;96409.84;5063773;28;20430;-78
2022/01/05 06:48:25;;;;;;;2.13;1.83;;;;;;;26.76;21.19;96408.94;5056314;28;20108;-78
2022/01/05 06:50:51;;;;;;;3.83;1.70;;;;;;;26.85;21.20;96411.63;5060330;28;20033;-77
2022/01/05 06:53:17;;;;;;;1.52;1.33;;;;;;;26.77;21.11;96418.97;5054763;28;20075;-77
2022/01/05 06:55:43;;;;;;;1.92;1.25;;;;;;;27.35;20.69;96419.38;5067659;28;20479;-77
2022/01/05 06:58:09;;;;;;;1.75;1.42;;;;;;;27.90;20.11;96424.06;5063915;28;20456;-78
2022/01/05 07:00:35;;;;;;;2.45;1.50;;;;;;;28.23;19.42;96423.59;5062235;28;20435;-78
2022/01/05 07:03:01;;;;;;;2.15;1.67;;;;;;;28.39;19.36;96432.19;5062485;28;20044;-77
2022/01/05 07:05:27;;;;;;;2.53;2.10;;;;;;;28.12;19.41;96429.94;5064724;28;20036;-78
2022/01/05 07:07:53;;;;;;;1.77;1.52;;;;;;;27.73;19.78;96426.72;5064819;28;20032;-77
2022/01/05 07:10:19;;;;;;;3.97;2.45;;;;;;;27.37;20.40;96428.19;5046454;28;20037;-78
2022/01/05 07:12:47;;;;;;;3.50;2.45;;;;;;;26.68;20.96;96434.66;5066206;28;20040;-78
2022/01/05 07:15:14;;;;;;;5.15;2.50;;;;;;;26.38;21.66;96435.25;5066864;28;20021;-77
2022/01/05 07:17:41;;;;;;;2.38;1.77;;;;;;;26.12;21.83;96431.50;5058444;28;20027;-77
2022/01/05 07:20:08;;;;;;;2.78;2.40;;;;;;;25.99;22.25;96435.41;5067121;28;20137;-77
2022/01/05 07:22:36;;;;;;;2.35;2.03;;;;;;;26.28;21.85;96425.41;5072144;28;20025;-78
2022/01/05 07:25:02;;;;;;;2.13;1.77;;;;;;;26.63;21.87;96440.22;5073807;28;20028;-77
2022/01/05 07:27:28;;;;;;;2.53;1.83;;;;;;;27.13;21.03;96444.50;5070580;28;20387;-78
2022/01/05 07:29:55;;;;;;;2.88;1.83;;;;;;;27.55;20.41;96440.38;5070601;28;20039;-77
2022/01/05 07:32:21;;;;;;;2.15;1.33;;;;;;;27.95;19.86;96437.44;5061861;28;20492;-77
2022/01/05 07:34:47;;;;;;;2.58;2.17;;;;;;;27.87;19.98;96439.16;5049721;28;20211;-78
2022/01/05 07:37:13;;;;;;;3.05;1.50;;;;;;;27.92;20.13;96432.78;5070523;28;20090;-77
2022/01/05 07:39:40;;;;;;;2.55;1.92;;;;;;;28.22;19.73;96419.97;5073578;28;20032;-77
2022/01/05 07:42:06;;;;;;;3.33;2.08;;;;;;;28.32;19.67;96426.22;5052803;28;20476;-78
2022/01/05 07:44:33;;;;;;;3.38;1.83;;;;;;;28.51;19.60;96427.38;5051480;28;20480;-77
2022/01/05 07:46:59;;;;;;;3.40;2.20;;;;;;;28.66;19.22;96428.00;5072999;28;20056;-77
2022/01/05 07:49:25;;;;;;;2.22;2.03;;;;;;;28.74;19.04;96429.09;5060429;28;20052;-78
2022/01/05 07:51:51;;;;;;;2.47;1.88;;;;;;;28.84;19.11;96426.81;5072100;28;20040;-77
2022/01/05 07:54:17;;;;;;;5.25;3.55;;;;;;;28.68;19.33;96419.81;5070676;28;20040;-77
2022/01/05 07:56:43;;;;;;;4.07;2.88;;;;;;;28.68;19.16;96423.41;5070290;28;20043;-78
2022/01/05 07:59:09;;;;;;;6.22;3.65;;;;;;;28.76;19.19;96418.06;5071188;28;20041;-77
2022/01/05 08:01:35;;;;;;;5.00;3.28;;;;;;;28.45;19.14;96410.38;5072206;28;20032;-77
2022/01/05 08:04:01;;;;;;;4.43;3.63;;;;;;;27.93;19.67;96414.59;5074079;28;20037;-77
2022/01/05 08:06:27;;;;;;;4.03;3.08;;;;;;;27.73;20.04;96417.50;5075234;28;20059;-77
2022/01/05 08:08:53;;;;;;;3.47;2.72;;;;;;;27.60;20.29;96411.47;5070576;28;20057;-77
2022/01/05 08:11:19;;;;;;;3.88;2.70;;;;;;;27.63;20.49;96407.66;5073359;28;20029;-78
2022/01/05 08:13:47;;;;;;;4.45;2.95;;;;;;;27.94;20.01;96407.66;5073317;28;20089;-78
2022/01/05 08:16:14;;;;;;;4.93;2.55;;;;;;;28.14;19.64;96404.03;5071167;28;20060;-78
2022/01/05 08:18:40;;;;;;;3.13;2.42;;;;;;;28.39;19.74;96412.41;5073809;28;20041;-77
2022/01/05 08:21:06;;;;;;;3.25;2.38;;;;;;;28.37;19.62;96417.78;5070749;28;20036;-77
2022/01/05 08:23:32;;;;;;;4.60;2.40;;;;;;;28.26;19.90;96414.91;5069198;28;20044;-77
2022/01/05 08:25:59;;;;;;;6.03;2.75;;;;;;;28.47;19.63;96418.38;5050144;28;20035;-77
2022/01/05 08:28:25;;;;;;;5.70;3.15;;;;;;;28.34;19.37;96418.00;5072222;28;20024;-78
2022/01/05 08:30:51;;;;;;;3.72;2.75;;;;;;;27.88;20.10;96416.09;5073365;28;20068;-77
2022/01/05 08:33:18;;;;;;;3.33;2.50;;;;;;;27.92;20.26;96427.16;5070448;28;20648;-78
2022/01/05 08:35:46;;;;;;;3.97;2.97;;;;;;;28.19;19.94;96434.34;5070802;28;20503;-77
2022/01/05 08:38:12;;;;;;;5.38;2.75;;;;;;;28.46;19.76;96425.28;5066013;28;20027;-77
2022/01/05 08:40:38;;;;;;;5.88;3.60;;;;;;;28.64;19.54;96420.03;5069764;28;20060;-77
2022/01/05 08:43:07;;;;;;;5.45;4.43;;;;;;;28.73;19.25;96422.66;5073760;28;20044;-77
2022/01/05 08:45:33;;;;;;;7.05;3.83;;;;;;;28.77;19.23;96432.94;5047126;28;20179;-77
2022/01/05 08:48:00;;;;;;;7.55;5.45;;;;;;;28.58;19.49;96435.38;5071180;28;20024;-77
2022/01/05 08:50:29;;;;;;;7.57;4.55;;;;;;;28.64;19.54;96424.91;5075344;28;20045;-77
2022/01/05 08:52:57;;;;;;;7.75;5.18;;;;;;;28.80;19.16;96432.69;5072586;28;20029;-77
2022/01/05 08:55:27;;;;;;;8.80;5.05;;;;;;;28.71;19.33;96415.97;5071478;28;20445;-77
2022/01/05 08:57:54;;;;;;;10.00;5.68;;;;;;;28.65;19.27;96415.94;5069899;28;20527;-77
2022/01/05 09:00:20;;;;;;;8.98;5.85;;;;;;;28.62;19.38;96416.94;5069381;28;20041;-76
2022/01/05 09:02:47;;;;;;;10.60;6.00;;;;;;;28.72;19.08;96429.59;5053674;28;20028;-76
2022/01/05 09:05:13;;;;;;;8.20;5.45;;;;;;;28.74;19.37;96429.88;5069339;28;20484;-77
2022/01/05 09:07:39;;;;;;;12.52;6.85;;;;;;;28.74;19.39;96429.09;5069585;28;20139;-77
2022/01/05 09:10:05;;;;;;;8.85;5.57;;;;;;;28.55;19.59;96442.03;5074757;28;20060;-77
2022/01/05 09:12:33;;;;;;;10.38;5.47;;;;;;;28.33;19.73;96453.97;5067487;28;20039;-77
2022/01/05 09:15:00;;;;;;;10.38;5.55;;;;;;;27.94;19.88;96458.47;5055426;28;20399;-77
2022/01/05 09:17:27;;;;;;;12.18;5.38;;;;;;;27.80;20.42;96474.22;5073176;28;20028;-77
2022/01/05 09:19:54;;;;;;;7.07;4.80;;;;;;;27.86;20.34;96465.84;5073754;28;20392;-77
2022/01/05 09:22:21;;;;;;;9.10;4.95;;;;;;;27.98;20.33;96470.31;5069163;28;20066;-77
2022/01/05 09:24:47;;;;;;;6.82;4.35;;;;;;;28.15;19.89;96476.09;5054843;28;20033;-77
2022/01/05 09:27:13;;;;;;;7.47;4.95;;;;;;;28.09;19.86;96470.44;5072846;28;20067;-77
2022/01/05 09:29:40;;;;;;;6.00;4.20;;;;;;;27.99;19.85;96469.84;5072136;28;20599;-77
2022/01/05 09:32:09;;;;;;;6.15;4.10;;;;;;;27.88;20.16;96478.16;5066560;28;20029;-77
2022/01/05 09:34:39;;;;;;;5.00;3.30;;;;;;;27.88;20.27;96481.00;5052008;28;20487;-77
2022/01/05 09:37:16;;;;;;;6.88;4.70;;;;;;;27.79;20.07;96486.81;5068930;28;20067;-77
2022/01/05 09:42:27;;;;;;;9.65;5.03;;;;;;;28.18;19.71;96492.03;5061363;28;20048;-77
2022/01/05 09:44:55;;;;;;;11.40;6.47;;;;;;;28.04;19.99;96480.41;5064352;28;20480;-77
2022/01/05 09:47:45;;;;;;;11.77;6.93;;;;;;;28.10;19.97;96488.91;5067203;28;20055;-77
2022/01/05 09:50:13;;;;;;;22.45;11.82;;;;;;;28.13;19.77;96478.66;5067108;28;20644;-77
2022/01/05 09:52:44;;;;;;;46.83;22.65;;;;;;;28.10;20.00;96477.59;5057365;28;20029;-77
2022/01/05 09:55:12;;;;;;;55.35;27.70;;;;;;;28.06;20.02;96480.66;5068374;28;20051;-76
2022/01/05 09:57:41;;;;;;;18.52;9.50;;;;;;;27.96;19.96;96479.25;5070774;28;20082;-77
2022/01/05 10:00:11;;;;;;;11.88;6.30;;;;;;;27.92;20.19;96472.28;5067300;28;20036;-76
2022/01/05 10:02:39;;;;;;;10.45;6.05;;;;;;;27.93;20.03;96473.84;5069464;28;20430;-77
2022/01/05 10:05:09;;;;;;;8.35;4.68;;;;;;;27.90;20.18;96472.03;5064963;28;20029;-77
2022/01/05 10:07:35;;;;;;;7.22;4.10;;;;;;;27.75;20.31;96474.19;5070911;28;20040;-77
2022/01/05 10:10:02;;;;;;;6.78;4.57;;;;;;;27.62;20.24;96471.75;5053864;28;20044;-77
2022/01/05 10:12:29;;;;;;;6.80;4.30;;;;;;;27.46;20.32;96474.38;5057699;28;20044;-77
2022/01/05 10:14:55;;;;;;;6.47;3.72;;;;;;;26.87;21.10;96476.69;5063055;28;20037;-77
2022/01/05 10:17:29;;;;;;;6.30;3.70;;;;;;;26.80;21.32;96479.91;5066097;28;20040;-77
2022/01/05 10:20:01;;;;;;;5.63;3.45;;;;;;;26.94;21.16;96479.84;5072105;28;20020;-76
2022/01/05 10:22:32;;;;;;;5.72;3.22;;;;;;;26.87;20.91;96465.41;5071956;28;20078;-76
2022/01/05 10:24:59;;;;;;;7.65;3.63;;;;;;;27.26;20.75;96461.81;5071290;28;20032;-77
2022/01/05 10:27:27;;;;;;;4.18;2.67;;;;;;;27.47;20.35;96451.31;5071317;28;20029;-77
2022/01/05 10:29:56;;;;;;;5.30;2.78;;;;;;;27.78;20.00;96454.22;5068971;28;20040;-76
2022/01/05 10:32:23;;;;;;;3.15;2.15;;;;;;;27.85;19.90;96447.34;5070941;28;20039;-76
2022/01/05 10:35:28;;;;;;;4.03;2.55;;;;;;;27.54;19.98;96444.50;5068301;28;20561;-77
2022/01/05 10:38:08;;;;;;;6.60;3.25;;;;;;;27.50;20.52;96444.69;5041425;28;20065;-77
2022/01/05 10:40:36;;;;;;;3.42;2.28;;;;;;;27.18;20.72;96457.91;5045645;28;20064;-77
2022/01/05 10:43:08;;;;;;;3.15;2.15;;;;;;;27.14;21.08;96465.00;5053010;28;20424;-77
2022/01/05 10:45:47;;;;;;;7.55;3.17;;;;;;;27.61;20.64;96467.38;5068935;28;20505;-77
2022/01/05 10:48:25;;;;;;;4.40;2.83;;;;;;;27.90;20.35;96455.09;5063107;28;20047;-77
2022/01/05 10:51:04;;;;;;;29.92;10.63;;;;;;;28.18;19.97;96461.00;5070304;28;20467;-78
2022/01/05 10:53:30;;;;;;;32.38;10.60;;;;;;;28.25;20.00;96455.69;5058485;28;20116;-78
2022/01/05 10:55:56;;;;;;;27.80;10.90;;;;;;;28.44;19.69;96458.91;5068361;28;20099;-77
2022/01/05 10:58:22;;;;;;;50.80;18.33;;;;;;;28.56;19.61;96472.59;5072430;28;20060;-78
2022/01/05 11:00:53;;;;;;;97.47;32.92;;;;;;;28.49;20.05;96455.34;5070152;28;20040;-78
2022/01/05 11:03:35;;;;;;;99.78;33.40;;;;;;;28.34;20.25;96452.66;5068709;28;20112;-78
2022/01/05 11:06:05;;;;;;;139.98;47.95;;;;;;;28.43;19.88;96441.19;5069986;28;20434;-77
2022/01/05 11:08:52;;;;;;;84.05;29.83;;;;;;;28.55;20.03;96439.19;5066392;28;20024;-78
2022/01/05 11:11:31;;;;;;;93.97;31.65;;;;;;;28.64;19.84;96433.38;5068244;28;20131;-78
2022/01/05 11:13:57;;;;;;;101.43;39.20;;;;;;;28.76;19.42;96429.34;5074352;28;20051;-78
2022/01/05 11:16:30;;;;;;;149.43;57.05;;;;;;;28.95;19.46;96429.69;5071254;28;20032;-78
2022/01/05 11:19:15;;;;;;;82.35;30.83;;;;;;;29.02;19.45;96429.22;5070006;28;20036;-78
2022/01/05 11:22:12;;;;;;;45.75;19.15;;;;;;;28.93;19.84;96426.59;5063393;28;20028;-78
2022/01/05 11:24:46;;;;;;;54.70;19.85;;;;;;;28.61;19.85;96421.03;5058892;28;20086;-79
2022/01/05 11:27:16;;;;;;;95.00;35.33;;;;;;;28.62;19.63;96408.47;5060955;28;20056;-79
2022/01/05 11:29:43;;;;;;;40.57;16.80;;;;;;;28.63;19.83;96421.34;5061796;28;20039;-78
2022/01/05 11:32:12;;;;;;;35.55;15.40;;;;;;;28.72;19.82;96423.16;5067080;28;20444;-78
2022/01/05 11:34:38;;;;;;;58.63;26.33;;;;;;;28.89;19.63;96415.56;5072576;28;20033;-79